Time;durP1;ratioP1;P1;durP2;ratioP2;P2;SDS_P1;SDS_P2;PMS_P1;PMS_P2;Temp;Humidity;BMP_temperature;BMP_pressure;BME280_temperature;BME280_humidity;BME280_pressure;Samples;Min_cycle;Max_cycle;Signal;HPM_P1;HPM_P2
2022/02/19 00:00:11;;;;;;;;;;;5.80;99.90;;;;;;4941023;28;19930;-81
2022/02/19 00:02:41;;;;;;;;;;;5.70;99.90;;;;;;4953023;28;20265;-79
2022/02/19 00:05:07;;;;;;;;;;;5.70;99.90;;;;;;4956674;28;19968;-82
2022/02/19 00:07:32;;;;;;;;;;;5.70;99.90;;;;;;4935635;28;19945;-78
2022/02/19 00:09:58;;;;;;;;;;;5.70;99.90;;;;;;4962075;28;19941;-79
2022/02/19 00:12:24;;;;;;;;;;;5.70;99.90;;;;;;5014636;28;19919;-80
2022/02/19 00:14:52;;;;;;;;;;;5.70;99.90;;;;;;4995988;28;19982;-80
2022/02/19 00:17:19;;;;;;;;;;;5.60;99.90;;;;;;4966289;28;20284;-82
2022/02/19 00:19:46;;;;;;;;;;;5.70;99.90;;;;;;5009627;28;20277;-80
2022/02/19 00:22:11;;;;;;;;;;;5.70;99.90;;;;;;4942950;29;19929;-80
2022/02/19 00:24:37;;;;;;;;;;;5.80;99.90;;;;;;5034372;28;19925;-80
2022/02/19 00:27:02;;;;;;;;;;;5.80;99.90;;;;;;4989955;28;20008;-80
2022/02/19 00:29:28;;;;;;;;;;;5.80;99.90;;;;;;4990246;28;19929;-80
2022/02/19 00:31:54;;;;;;;;;;;5.80;99.90;;;;;;4996733;28;19916;-80
2022/02/19 00:34:20;;;;;;;;;;;5.80;99.90;;;;;;5020061;28;19921;-80
2022/02/19 00:36:46;;;;;;;;;;;5.70;99.90;;;;;;4948423;28;19915;-80
2022/02/19 00:39:12;;;;;;;;;;;5.70;99.90;;;;;;4946174;28;19934;-79
2022/02/19 00:41:38;;;;;;;;;;;5.70;99.90;;;;;;4944685;29;19923;-80
2022/02/19 00:44:05;;;;;;;;;;;5.60;99.90;;;;;;4957733;28;20386;-79
2022/02/19 00:46:30;;;;;;;;;;;5.60;99.90;;;;;;4978104;28;19926;-80
2022/02/19 00:48:56;;;;;;;;;;;5.50;99.90;;;;;;4968286;28;20464;-79
2022/02/19 00:51:23;;;;;;;;;;;5.50;99.90;;;;;;4946739;29;19919;-79
2022/02/19 00:53:48;;;;;;;;;;;5.40;99.90;;;;;;4932665;29;19925;-79
2022/02/19 00:56:14;;;;;;;;;;;5.40;99.90;;;;;;4945165;28;19918;-79
2022/02/19 00:58:40;;;;;;;;;;;5.40;99.90;;;;;;4945247;28;19930;-80
2022/02/19 01:01:07;;;;;;;;;;;5.40;99.90;;;;;;4971769;28;19919;-80
2022/02/19 01:03:44;;;;;;;;;;;5.40;99.90;;;;;;4959223;29;19938;-79
2022/02/19 01:06:09;;;;;;;;;;;5.40;99.90;;;;;;4958275;28;19914;-79
2022/02/19 01:08:35;;;;;;;;;;;5.40;99.90;;;;;;4962224;28;20364;-79
2022/02/19 01:11:00;;;;;;;;;;;5.40;99.90;;;;;;4971280;28;19918;-80
2022/02/19 01:13:26;;;;;;;;;;;5.40;99.90;;;;;;4949417;28;20389;-80
2022/02/19 01:15:52;;;;;;;;;;;5.40;99.90;;;;;;4955382;28;19915;-80
2022/02/19 01:18:17;;;;;;;;;;;5.40;99.90;;;;;;4974631;28;20372;-80
2022/02/19 01:20:45;;;;;;;;;;;5.40;99.90;;;;;;4970613;28;20432;-79
2022/02/19 01:23:11;;;;;;;;;;;5.40;99.90;;;;;;4937783;29;20010;-80
2022/02/19 01:25:37;;;;;;;;;;;5.40;99.90;;;;;;4958541;29;19926;-79
2022/02/19 01:28:05;;;;;;;;;;;5.30;99.90;;;;;;4950933;29;19910;-79
2022/02/19 01:30:32;;;;;;;;;;;5.30;99.90;;;;;;4934945;29;19918;-78
2022/02/19 01:33:00;;;;;;;;;;;5.30;99.90;;;;;;4968279;28;19915;-79
2022/02/19 01:35:28;;;;;;;;;;;5.30;99.90;;;;;;4966557;28;19923;-80
2022/02/19 01:37:55;;;;;;;;;;;5.30;99.90;;;;;;4950132;28;19918;-80
2022/02/19 01:40:21;;;;;;;;;;;5.20;99.90;;;;;;4974152;28;19918;-80
2022/02/19 01:42:47;;;;;;;;;;;5.10;99.90;;;;;;4943006;29;19918;-79
2022/02/19 01:45:14;;;;;;;;;;;5.10;99.90;;;;;;4974802;28;19927;-81
2022/02/19 01:47:43;;;;;;;;;;;5.10;99.90;;;;;;4981237;28;19921;-80
2022/02/19 01:50:15;;;;;;;;;;;5.00;99.90;;;;;;4975624;28;19915;-79
2022/02/19 01:52:42;;;;;;;;;;;5.10;99.90;;;;;;4982656;28;20004;-80
2022/02/19 01:55:11;;;;;;;;;;;5.10;99.90;;;;;;4997321;28;19923;-79
2022/02/19 01:57:47;;;;;;;;;;;5.10;99.90;;;;;;4963752;28;19918;-79
2022/02/19 02:00:33;;;;;;;;;;;5.10;99.90;;;;;;4971933;28;19949;-79
2022/02/19 02:03:37;;;;;;;;;;;5.10;99.90;;;;;;4950366;28;19915;-79
2022/02/19 02:06:12;;;;;;;;;;;5.10;99.90;;;;;;4959524;28;19922;-79
2022/02/19 02:08:39;;;;;;;;;;;5.10;99.90;;;;;;4961813;28;19918;-80
2022/02/19 02:11:06;;;;;;;;;;;5.10;99.90;;;;;;4960420;28;19914;-79
2022/02/19 02:13:38;;;;;;;;;;;5.10;99.90;;;;;;4949517;29;19919;-79
2022/02/19 02:16:04;;;;;;;;;;;5.00;99.90;;;;;;4940548;28;19974;-79
2022/02/19 02:18:51;;;;;;;;;;;5.00;99.90;;;;;;4948225;29;19933;-79
2022/02/19 02:21:16;;;;;;;;;;;5.00;99.90;;;;;;4958278;28;19921;-79
2022/02/19 02:23:42;;;;;;;;;;;5.00;99.90;;;;;;4974310;28;19940;-80
2022/02/19 02:26:08;;;;;;;;;;;4.90;99.90;;;;;;4963554;28;19952;-79
2022/02/19 02:28:34;;;;;;;;;;;4.90;99.90;;;;;;4960394;28;19919;-80
2022/02/19 02:31:03;;;;;;;;;;;4.90;99.90;;;;;;4946504;29;19918;-78
2022/02/19 02:33:30;;;;;;;;;;;4.90;99.90;;;;;;4946646;29;20017;-79
2022/02/19 02:36:03;;;;;;;;;;;5.00;99.90;;;;;;4947427;28;19926;-80
2022/02/19 02:38:40;;;;;;;;;;;5.00;99.90;;;;;;4933511;28;19934;-79
2022/02/19 02:41:06;;;;;;;;;;;5.10;99.90;;;;;;4943108;29;19919;-78
2022/02/19 02:43:32;;;;;;;;;;;5.00;99.90;;;;;;4959410;28;19958;-79
2022/02/19 02:45:58;;;;;;;;;;;5.00;99.90;;;;;;4962285;28;19930;-79
2022/02/19 02:48:24;;;;;;;;;;;5.10;99.90;;;;;;4942401;28;19919;-79
2022/02/19 02:50:51;;;;;;;;;;;5.10;99.90;;;;;;4944994;29;19941;-80
2022/02/19 02:53:17;;;;;;;;;;;5.10;99.90;;;;;;4959475;29;19987;-79
2022/02/19 02:55:43;;;;;;;;;;;5.10;99.90;;;;;;4959633;29;19910;-80
2022/02/19 02:58:08;;;;;;;;;;;5.10;99.90;;;;;;4949116;28;19914;-80
2022/02/19 03:00:35;;;;;;;;;;;5.10;99.90;;;;;;4968464;28;19929;-78
2022/02/19 03:03:01;;;;;;;;;;;5.10;99.90;;;;;;4971102;28;19919;-80
2022/02/19 03:05:27;;;;;;;;;;;5.10;99.90;;;;;;4958584;28;20351;-79
2022/02/19 03:07:53;;;;;;;;;;;5.10;99.90;;;;;;4974042;28;19926;-79
2022/02/19 03:10:18;;;;;;;;;;;5.10;99.90;;;;;;4948942;28;19919;-80
2022/02/19 03:12:45;;;;;;;;;;;5.10;99.90;;;;;;4962869;28;19930;-80
2022/02/19 03:15:10;;;;;;;;;;;5.10;99.90;;;;;;4999829;28;19917;-80
2022/02/19 03:17:38;;;;;;;;;;;5.10;99.90;;;;;;4938951;29;19922;-80
2022/02/19 03:20:04;;;;;;;;;;;5.10;99.90;;;;;;4944297;28;19923;-80
2022/02/19 03:22:32;;;;;;;;;;;5.10;99.90;;;;;;4945356;28;19918;-79
2022/02/19 03:24:57;;;;;;;;;;;5.20;99.90;;;;;;4961070;28;19927;-80
2022/02/19 03:27:23;;;;;;;;;;;5.20;99.90;;;;;;4966609;28;19933;-79
2022/02/19 03:29:49;;;;;;;;;;;5.10;99.90;;;;;;4968471;28;19970;-80
2022/02/19 03:32:15;;;;;;;;;;;5.10;99.90;;;;;;4961083;28;19919;-80
2022/02/19 03:34:40;;;;;;;;;;;5.10;99.90;;;;;;4965032;29;19918;-79
2022/02/19 03:37:06;;;;;;;;;;;5.10;99.90;;;;;;4948540;29;19989;-80
2022/02/19 03:39:32;;;;;;;;;;;5.10;99.90;;;;;;4963873;29;20009;-80
2022/02/19 03:41:59;;;;;;;;;;;5.00;99.90;;;;;;4944075;28;20671;-79
2022/02/19 03:44:25;;;;;;;;;;;5.00;99.90;;;;;;4944268;28;20304;-80
2022/02/19 03:46:59;;;;;;;;;;;4.90;99.90;;;;;;5024967;23;19981;-83
2022/02/19 03:49:36;;;;;;;;;;;4.90;99.90;;;;;;5015275;28;19917;-84
2022/02/19 03:52:48;;;;;;;;;;;4.90;99.90;;;;;;5001432;28;19917;-84
2022/02/19 03:55:30;;;;;;;;;;;4.90;99.90;;;;;;5020523;28;19914;-81
2022/02/19 04:01:38;;;;;;;;;;;4.90;99.90;;;;;;5013386;28;19932;-83
2022/02/19 04:04:19;;;;;;;;;;;4.90;99.90;;;;;;4986582;28;19917;-83
2022/02/19 04:06:45;;;;;;;;;;;4.90;99.90;;;;;;5018710;28;19993;-83
2022/02/19 04:09:11;;;;;;;;;;;4.90;99.90;;;;;;5010059;28;19929;-83
2022/02/19 04:11:42;;;;;;;;;;;4.90;99.90;;;;;;5018570;28;19960;-83
2022/02/19 04:14:09;;;;;;;;;;;4.80;99.90;;;;;;5012480;28;20395;-81
2022/02/19 04:16:47;;;;;;;;;;;4.80;99.90;;;;;;4995500;28;19921;-82
2022/02/19 04:19:16;;;;;;;;;;;4.80;99.90;;;;;;5018079;28;19940;-81
2022/02/19 04:21:42;;;;;;;;;;;4.80;99.90;;;;;;5012373;28;19914;-82
2022/02/19 04:24:13;;;;;;;;;;;4.80;99.90;;;;;;5012390;28;20283;-83
2022/02/19 04:26:41;;;;;;;;;;;4.80;99.90;;;;;;4995814;28;19913;-83
2022/02/19 04:29:07;;;;;;;;;;;4.80;99.90;;;;;;4995624;28;19964;-83
2022/02/19 04:31:40;;;;;;;;;;;4.80;99.90;;;;;;4997438;28;19957;-83
2022/02/19 04:34:13;;;;;;;;;;;4.70;99.90;;;;;;4998909;28;19917;-82
2022/02/19 04:40:02;;;;;;;;;;;4.70;99.90;;;;;;5014067;28;20063;-83
2022/02/19 04:42:32;;;;;;;;;;;4.70;99.90;;;;;;4995756;28;19921;-81
2022/02/19 04:45:08;;;;;;;;;;;4.70;99.90;;;;;;5011271;28;19918;-81
2022/02/19 04:48:05;;;;;;;;;;;4.60;99.90;;;;;;4987703;28;20289;-84
2022/02/19 04:50:40;;;;;;;;;;;4.60;99.90;;;;;;5011670;28;19921;-83
2022/02/19 04:53:09;;;;;;;;;;;4.60;99.90;;;;;;5028008;28;19914;-83
2022/02/19 04:55:36;;;;;;;;;;;4.60;99.90;;;;;;5021712;28;19921;-84
2022/02/19 04:58:14;;;;;;;;;;;4.60;99.90;;;;;;5020896;28;19921;-84
2022/02/19 05:00:40;;;;;;;;;;;4.60;99.90;;;;;;5003575;28;19921;-83
2022/02/19 05:03:27;;;;;;;;;;;4.60;99.90;;;;;;4994246;28;19936;-82
2022/02/19 05:06:19;;;;;;;;;;;4.60;99.90;;;;;;5024422;28;19945;-85
2022/02/19 05:08:55;;;;;;;;;;;4.60;99.90;;;;;;5006819;28;19952;-83
2022/02/19 05:11:25;;;;;;;;;;;4.60;99.90;;;;;;5006634;28;20331;-82
2022/02/19 05:13:52;;;;;;;;;;;4.60;99.90;;;;;;4960389;28;19914;-83
2022/02/19 05:16:18;;;;;;;;;;;4.50;99.90;;;;;;4993656;28;20017;-84
2022/02/19 05:18:57;;;;;;;;;;;4.60;99.90;;;;;;4993805;28;20339;-83
2022/02/19 05:21:24;;;;;;;;;;;4.50;99.90;;;;;;4976894;28;19918;-82
2022/02/19 05:23:53;;;;;;;;;;;4.50;99.90;;;;;;5010817;28;19921;-83
2022/02/19 05:26:44;;;;;;;;;;;4.50;99.90;;;;;;5020354;28;19964;-84
2022/02/19 05:29:16;;;;;;;;;;;4.50;99.90;;;;;;5003588;28;19936;-83
2022/02/19 05:31:49;;;;;;;;;;;4.50;99.90;;;;;;5027482;28;20397;-83
2022/02/19 05:34:35;;;;;;;;;;;4.50;99.90;;;;;;4990084;28;19972;-83
2022/02/19 05:37:05;;;;;;;;;;;4.50;99.90;;;;;;5009353;28;20429;-83
2022/02/19 05:39:42;;;;;;;;;;;4.50;99.90;;;;;;4995988;28;19921;-82
2022/02/19 05:42:11;;;;;;;;;;;4.40;99.90;;;;;;5011234;28;19913;-82
2022/02/19 05:44:37;;;;;;;;;;;4.30;99.90;;;;;;4995109;28;19925;-82
2022/02/19 05:47:06;;;;;;;;;;;4.20;99.90;;;;;;4994014;28;19925;-80
2022/02/19 05:49:37;;;;;;;;;;;4.10;99.90;;;;;;5000023;28;19917;-82
2022/02/19 05:52:22;;;;;;;;;;;4.10;99.90;;;;;;5021023;28;20371;-82
2022/02/19 05:55:10;;;;;;;;;;;4.00;99.90;;;;;;5011584;28;20371;-81
2022/02/19 05:57:43;;;;;;;;;;;3.90;99.90;;;;;;5014344;28;20623;-82
2022/02/19 06:00:20;;;;;;;;;;;3.80;99.90;;;;;;5026230;28;19917;-82
2022/02/19 06:02:53;;;;;;;;;;;3.70;99.90;;;;;;5001301;28;19918;-81
2022/02/19 06:05:19;;;;;;;;;;;3.70;99.90;;;;;;5017753;28;20299;-81
2022/02/19 06:07:48;;;;;;;;;;;3.60;99.90;;;;;;4993282;28;19968;-82
2022/02/19 06:10:15;;;;;;;;;;;3.60;99.90;;;;;;5002636;28;19979;-82
2022/02/19 06:12:41;;;;;;;;;;;3.70;99.90;;;;;;5016703;28;20469;-83
2022/02/19 06:15:11;;;;;;;;;;;3.70;99.90;;;;;;4998326;28;20268;-81
2022/02/19 06:18:00;;;;;;;;;;;3.80;99.90;;;;;;5017366;28;20000;-81
2022/02/19 06:20:28;;;;;;;;;;;3.80;99.90;;;;;;5002317;28;20323;-81
2022/02/19 06:22:54;;;;;;;;;;;3.80;99.90;;;;;;5013136;28;20459;-81
2022/02/19 06:25:21;;;;;;;;;;;3.80;99.90;;;;;;4997062;28;20383;-83
2022/02/19 06:27:47;;;;;;;;;;;3.80;99.90;;;;;;4996449;28;20328;-81
2022/02/19 06:30:22;;;;;;;;;;;3.90;99.90;;;;;;5012918;28;19914;-81
2022/02/19 06:32:53;;;;;;;;;;;3.90;99.90;;;;;;5024185;28;19921;-82
2022/02/19 06:35:21;;;;;;;;;;;3.90;99.90;;;;;;4994786;28;19918;-81
2022/02/19 06:37:47;;;;;;;;;;;4.00;99.90;;;;;;4994279;28;20433;-82
2022/02/19 06:40:14;;;;;;;;;;;4.00;99.90;;;;;;4996172;28;19917;-81
2022/02/19 06:42:41;;;;;;;;;;;3.90;99.90;;;;;;5001014;28;19925;-81
2022/02/19 06:45:24;;;;;;;;;;;4.00;99.90;;;;;;4994049;28;20372;-81
2022/02/19 06:47:52;;;;;;;;;;;4.00;99.90;;;;;;4992867;28;20395;-81
2022/02/19 06:50:21;;;;;;;;;;;4.00;99.90;;;;;;4994401;28;19920;-83
2022/02/19 06:52:47;;;;;;;;;;;3.90;99.90;;;;;;5004743;28;20000;-82
2022/02/19 06:55:17;;;;;;;;;;;3.80;99.90;;;;;;4995267;28;20010;-83
2022/02/19 06:57:46;;;;;;;;;;;3.60;99.90;;;;;;5035875;28;19917;-83
2022/02/19 07:00:12;;;;;;;;;;;3.50;99.90;;;;;;5007822;28;19925;-82
2022/02/19 07:02:40;;;;;;;;;;;3.40;99.90;;;;;;4993725;28;20368;-82
2022/02/19 07:05:06;;;;;;;;;;;3.20;99.90;;;;;;5011931;28;20295;-82
2022/02/19 07:07:51;;;;;;;;;;;3.20;99.90;;;;;;4998817;28;19921;-82
2022/02/19 07:10:16;;;;;;;;;;;3.10;99.90;;;;;;4997087;28;19917;-83
2022/02/19 07:12:44;;;;;;;;;;;3.00;99.90;;;;;;4984058;28;19921;-81
2022/02/19 07:15:11;;;;;;;;;;;3.00;99.90;;;;;;4995207;28;20586;-83
2022/02/19 07:17:55;;;;;;;;;;;3.10;99.90;;;;;;5013178;28;19928;-83
2022/02/19 07:20:23;;;;;;;;;;;3.20;99.90;;;;;;4997980;28;19921;-82
2022/02/19 07:22:49;;;;;;;;;;;3.20;99.90;;;;;;5004810;28;19965;-82
2022/02/19 07:25:15;;;;;;;;;;;3.30;99.90;;;;;;5003964;28;20396;-82
2022/02/19 07:27:42;;;;;;;;;;;3.40;99.90;;;;;;4998220;28;19960;-82
2022/02/19 07:30:08;;;;;;;;;;;3.50;99.90;;;;;;5010101;28;20432;-82
2022/02/19 07:32:37;;;;;;;;;;;3.50;99.90;;;;;;4993628;28;19960;-82
2022/02/19 07:35:08;;;;;;;;;;;3.60;99.90;;;;;;5006395;28;20417;-82
2022/02/19 07:37:38;;;;;;;;;;;3.60;99.90;;;;;;5021433;28;20286;-82
2022/02/19 07:40:05;;;;;;;;;;;3.70;99.90;;;;;;5021341;28;19917;-82
2022/02/19 07:42:32;;;;;;;;;;;3.80;99.90;;;;;;4986254;28;19920;-82
2022/02/19 07:45:30;;;;;;;;;;;3.80;99.90;;;;;;4994417;28;19921;-83
2022/02/19 07:48:21;;;;;;;;;;;3.80;99.90;;;;;;5017284;28;19917;-84
2022/02/19 07:58:18;;;;;;;;;;;4.00;99.90;;;;;;5022450;28;19972;-82
2022/02/19 07:59:52;;;;;;;;;;;4.10;99.90;;;;;;4996403;28;19928;-83
2022/02/19 08:02:18;;;;;;;;;;;4.20;99.90;;;;;;4993472;28;19922;-82
2022/02/19 08:04:44;;;;;;;;;;;4.30;99.90;;;;;;4977528;28;19918;-82
2022/02/19 08:07:09;;;;;;;;;;;4.30;99.90;;;;;;5009883;28;19914;-82
2022/02/19 08:09:36;;;;;;;;;;;4.40;99.90;;;;;;4988728;28;19917;-83
2022/02/19 08:12:01;;;;;;;;;;;4.50;99.90;;;;;;4985284;28;19940;-83
2022/02/19 08:14:27;;;;;;;;;;;4.60;99.90;;;;;;5030712;28;20322;-82
2022/02/19 08:16:52;;;;;;;;;;;4.60;99.90;;;;;;5010018;28;20008;-82
2022/02/19 08:19:18;;;;;;;;;;;4.60;99.90;;;;;;4993667;28;19980;-83
2022/02/19 08:21:44;;;;;;;;;;;4.70;99.90;;;;;;4990882;28;19917;-82
2022/02/19 08:24:09;;;;;;;;;;;4.70;99.90;;;;;;5003642;28;19914;-81
2022/02/19 08:26:35;;;;;;;;;;;4.70;99.90;;;;;;4992050;28;20280;-83
2022/02/19 08:29:05;;;;;;;;;;;4.70;99.90;;;;;;5004208;28;19944;-83
2022/02/19 08:31:31;;;;;;;;;;;4.70;99.90;;;;;;5015152;28;20335;-81
2022/02/19 08:33:57;;;;;;;;;;;4.70;99.90;;;;;;4997639;28;20024;-83
2022/02/19 08:36:22;;;;;;;;;;;4.70;99.90;;;;;;4997152;28;20012;-83
2022/02/19 08:38:48;;;;;;;;;;;4.70;99.90;;;;;;4993786;28;19922;-82
2022/02/19 08:41:13;;;;;;;;;;;4.70;99.90;;;;;;5010206;28;19918;-83
2022/02/19 08:43:39;;;;;;;;;;;4.80;99.90;;;;;;4992165;28;19917;-82
2022/02/19 08:46:05;;;;;;;;;;;4.80;99.90;;;;;;5003833;28;19922;-83
2022/02/19 08:48:32;;;;;;;;;;;4.80;99.90;;;;;;4973369;28;19925;-83
2022/02/19 08:51:00;;;;;;;;;;;4.80;99.90;;;;;;5016634;28;19917;-82
2022/02/19 08:53:26;;;;;;;;;;;4.80;99.90;;;;;;4976501;28;19914;-85
2022/02/19 08:55:52;;;;;;;;;;;4.80;99.90;;;;;;4981179;28;19914;-84
2022/02/19 08:58:18;;;;;;;;;;;4.90;99.90;;;;;;5003597;28;19944;-82
2022/02/19 09:00:43;;;;;;;;;;;4.90;99.90;;;;;;5011561;28;19917;-82
2022/02/19 09:03:09;;;;;;;;;;;5.00;99.90;;;;;;4987469;28;19918;-83
2022/02/19 09:05:34;;;;;;;;;;;5.00;99.90;;;;;;4991497;28;19949;-82
2022/02/19 09:08:00;;;;;;;;;;;5.10;99.90;;;;;;4994071;28;19962;-82
2022/02/19 09:10:26;;;;;;;;;;;5.10;99.90;;;;;;5016738;28;19914;-82
2022/02/19 09:12:51;;;;;;;;;;;5.10;99.90;;;;;;4990944;28;19914;-82
2022/02/19 09:15:22;;;;;;;;;;;5.10;99.90;;;;;;4976872;28;19953;-81
2022/02/19 09:17:48;;;;;;;;;;;5.20;99.90;;;;;;4969408;28;19953;-83
2022/02/19 09:20:14;;;;;;;;;;;5.20;99.90;;;;;;4991076;28;19918;-82
2022/02/19 09:22:40;;;;;;;;;;;5.30;99.90;;;;;;5013053;28;19924;-85
2022/02/19 09:25:07;;;;;;;;;;;5.30;99.90;;;;;;5023511;28;20020;-83
2022/02/19 09:27:33;;;;;;;;;;;5.30;99.90;;;;;;4992817;28;19939;-80
2022/02/19 09:29:59;;;;;;;;;;;5.30;99.90;;;;;;4990412;28;19922;-82
2022/02/19 09:32:24;;;;;;;;;;;5.40;99.90;;;;;;5011633;28;19913;-83
2022/02/19 09:34:51;;;;;;;;;;;5.40;99.90;;;;;;5004683;28;20380;-83
2022/02/19 09:37:17;;;;;;;;;;;5.40;99.90;;;;;;5005536;28;19918;-82
2022/02/19 09:39:42;;;;;;;;;;;5.40;99.90;;;;;;5008663;28;20347;-84
2022/02/19 09:42:10;;;;;;;;;;;5.50;99.90;;;;;;5008425;28;19924;-83
2022/02/19 09:44:36;;;;;;;;;;;5.50;99.90;;;;;;4978345;28;19914;-83
2022/02/19 09:47:02;;;;;;;;;;;5.50;99.90;;;;;;4989326;28;19928;-83
2022/02/19 09:49:28;;;;;;;;;;;5.60;99.90;;;;;;4975511;28;19926;-83
2022/02/19 09:51:59;;;;;;;;;;;5.60;99.90;;;;;;4988226;28;19975;-85
2022/02/19 09:54:25;;;;;;;;;;;5.50;99.90;;;;;;4991992;28;20188;-82
2022/02/19 09:56:50;;;;;;;;;;;5.50;99.90;;;;;;4967468;23;19927;-82
2022/02/19 09:59:16;;;;;;;;;;;5.50;99.90;;;;;;4960030;28;19944;-83
2022/02/19 10:01:42;;;;;;;;;;;5.40;99.90;;;;;;4964748;28;19925;-82
2022/02/19 10:04:08;;;;;;;;;;;5.40;99.90;;;;;;4919123;28;20017;-81
2022/02/19 10:06:34;;;;;;;;;;;5.30;99.90;;;;;;4950168;28;20288;-81
2022/02/19 10:09:07;;;;;;;;;;;5.40;99.90;;;;;;4948203;28;19972;-82
2022/02/19 10:11:32;;;;;;;;;;;5.40;99.90;;;;;;4945068;29;19926;-82
2022/02/19 10:13:58;;;;;;;;;;;5.40;99.90;;;;;;4935694;28;20373;-82
2022/02/19 10:16:26;;;;;;;;;;;5.50;99.90;;;;;;4914741;29;20324;-83
2022/02/19 10:18:51;;;;;;;;;;;5.50;99.90;;;;;;4922029;28;19927;-82
2022/02/19 10:21:18;;;;;;;;;;;5.50;99.90;;;;;;4915327;28;19974;-84
2022/02/19 10:23:45;;;;;;;;;;;5.60;99.90;;;;;;4948055;29;19926;-83
2022/02/19 10:26:11;;;;;;;;;;;5.80;99.90;;;;;;4931961;29;20403;-82
2022/02/19 10:28:38;;;;;;;;;;;5.80;99.90;;;;;;4945301;29;19919;-83
2022/02/19 10:31:11;;;;;;;;;;;5.90;99.90;;;;;;4932963;28;19922;-83
2022/02/19 10:33:39;;;;;;;;;;;6.00;99.90;;;;;;4947094;28;19922;-81
2022/02/19 10:36:12;;;;;;;;;;;6.10;99.90;;;;;;4949312;28;20296;-83
2022/02/19 10:38:50;;;;;;;;;;;6.20;99.90;;;;;;4946378;28;20041;-82
2022/02/19 10:41:16;;;;;;;;;;;6.30;99.90;;;;;;4930943;29;19970;-84
2022/02/19 10:43:43;;;;;;;;;;;6.40;99.90;;;;;;4899892;29;19954;-84
2022/02/19 10:46:09;;;;;;;;;;;6.40;99.90;;;;;;4898445;29;19923;-82
2022/02/19 10:48:35;;;;;;;;;;;6.40;99.90;;;;;;4909785;28;19925;-83
2022/02/19 10:51:11;;;;;;;;;;;6.40;99.90;;;;;;4930992;28;19915;-82
2022/02/19 10:53:37;;;;;;;;;;;6.40;99.90;;;;;;4928787;28;20285;-84
2022/02/19 10:56:32;;;;;;;;;;;6.40;99.90;;;;;;4926995;29;20284;-85
2022/02/19 10:59:02;;;;;;;;;;;6.40;99.90;;;;;;4908415;28;19929;-84
2022/02/19 11:01:28;;;;;;;;;;;6.40;99.90;;;;;;4965711;28;19918;-84
2022/02/19 11:03:58;;;;;;;;;;;6.40;99.90;;;;;;4979585;28;19915;-82
2022/02/19 11:06:23;;;;;;;;;;;6.50;99.90;;;;;;4925166;28;19915;-84
2022/02/19 11:08:49;;;;;;;;;;;6.50;99.90;;;;;;4990497;28;20009;-82
2022/02/19 11:11:15;;;;;;;;;;;6.50;99.90;;;;;;4927537;28;19958;-83
2022/02/19 11:13:42;;;;;;;;;;;6.50;99.90;;;;;;4944715;28;19917;-83
2022/02/19 11:16:07;;;;;;;;;;;6.50;99.90;;;;;;4934916;28;19966;-83
2022/02/19 11:18:33;;;;;;;;;;;6.60;99.90;;;;;;4938220;28;20332;-81
2022/02/19 11:21:03;;;;;;;;;;;6.60;99.90;;;;;;4910551;29;20372;-82
2022/02/19 11:23:33;;;;;;;;;;;6.60;99.20;;;;;;4936862;28;19915;-84
2022/02/19 11:25:59;;;;;;;;;;;6.70;99.90;;;;;;4929266;28;20017;-82
2022/02/19 11:28:27;;;;;;;;;;;6.70;99.90;;;;;;4946308;28;19921;-84
2022/02/19 11:30:55;;;;;;;;;;;6.80;98.10;;;;;;4905760;29;19962;-85
2022/02/19 11:33:21;;;;;;;;;;;6.80;99.00;;;;;;4931526;28;19915;-82
2022/02/19 11:35:47;;;;;;;;;;;6.90;98.50;;;;;;4940065;29;20385;-82
2022/02/19 11:38:23;;;;;;;;;;;6.90;97.00;;;;;;4918900;28;19970;-82
2022/02/19 11:40:50;;;;;;;;;;;7.00;97.60;;;;;;4932006;28;19925;-83
2022/02/19 11:43:37;;;;;;;;;;;6.90;94.80;;;;;;4927145;29;19915;-83
2022/02/19 11:46:23;;;;;;;;;;;6.80;94.70;;;;;;4925708;29;19919;-83
2022/02/19 11:48:49;;;;;;;;;;;6.70;95.70;;;;;;4920301;29;19923;-83
2022/02/19 11:51:16;;;;;;;;;;;6.70;96.00;;;;;;4926409;29;19941;-84
2022/02/19 11:53:44;;;;;;;;;;;6.70;97.60;;;;;;4891939;28;19923;-82
2022/02/19 11:56:11;;;;;;;;;;;6.60;95.70;;;;;;4932751;29;19954;-83
2022/02/19 11:58:50;;;;;;;;;;;6.50;94.30;;;;;;4929890;28;19919;-83
2022/02/19 12:01:16;;;;;;;;;;;6.50;96.20;;;;;;4975410;28;19929;-82
2022/02/19 12:03:41;;;;;;;;;;;6.40;96.00;;;;;;4896534;29;19923;-81
2022/02/19 12:06:08;;;;;;;;;;;6.40;96.30;;;;;;4895660;28;20006;-82
2022/02/19 12:08:45;;;;;;;;;;;6.40;97.50;;;;;;4912945;28;19919;-81
2022/02/19 12:11:11;;;;;;;;;;;6.40;96.40;;;;;;4942205;29;19922;-80
2022/02/19 12:13:46;;;;;;;;;;;6.30;96.10;;;;;;4925187;28;19911;-80
2022/02/19 12:19:00;;;;;;;;;;;6.20;98.20;;;;;;4939876;28;19915;-81
2022/02/19 12:21:33;;;;;;;;;;;6.20;96.90;;;;;;4906612;28;20208;-80
2022/02/19 12:24:10;;;;;;;;;;;6.20;98.10;;;;;;4925948;28;19915;-82
2022/02/19 12:27:05;;;;;;;;;;;6.20;94.50;;;;;;4927374;28;19921;-83
2022/02/19 12:29:31;;;;;;;;;;;6.20;96.80;;;;;;4925592;28;19933;-82
2022/02/19 12:32:06;;;;;;;;;;;6.20;96.90;;;;;;4939504;28;19954;-83
2022/02/19 12:34:47;;;;;;;;;;;6.30;98.00;;;;;;4942333;29;19919;-81
2022/02/19 12:37:13;;;;;;;;;;;6.40;96.80;;;;;;4932949;29;19926;-80
2022/02/19 12:39:43;;;;;;;;;;;6.50;96.90;;;;;;4924925;28;20285;-80
2022/02/19 12:42:15;;;;;;;;;;;6.60;95.50;;;;;;4932671;28;20086;-82
2022/02/19 12:44:40;;;;;;;;;;;6.70;96.90;;;;;;4923507;29;19934;-81
2022/02/19 12:47:08;;;;;;;;;;;6.80;96.90;;;;;;4927375;29;20667;-80
2022/02/19 12:49:33;;;;;;;;;;;6.90;95.80;;;;;;4938327;28;20009;-84
2022/02/19 12:52:00;;;;;;;;;;;7.00;94.50;;;;;;4913039;29;20010;-83
2022/02/19 12:54:37;;;;;;;;;;;7.00;92.90;;;;;;4946474;28;20675;-81
2022/02/19 12:57:06;;;;;;;;;;;7.00;92.50;;;;;;4925300;28;20014;-83
2022/02/19 12:59:33;;;;;;;;;;;7.00;92.90;;;;;;4929298;28;20328;-84
2022/02/19 13:02:00;;;;;;;;;;;7.00;90.20;;;;;;4924056;29;19925;-81
2022/02/19 13:04:26;;;;;;;;;;;6.90;91.60;;;;;;4914840;29;20428;-83
2022/02/19 13:06:52;;;;;;;;;;;6.90;92.00;;;;;;4897270;29;19923;-81
2022/02/19 13:09:20;;;;;;;;;;;6.80;92.40;;;;;;4950852;28;20001;-83
2022/02/19 13:11:46;;;;;;;;;;;6.80;92.30;;;;;;4929908;28;20001;-83
2022/02/19 13:14:11;;;;;;;;;;;6.70;92.40;;;;;;4934878;28;20013;-83
2022/02/19 13:16:37;;;;;;;;;;;6.60;92.90;;;;;;4952680;28;19964;-82
2022/02/19 13:19:02;;;;;;;;;;;6.60;92.50;;;;;;4930524;28;19919;-81
2022/02/19 13:21:29;;;;;;;;;;;6.70;90.80;;;;;;4994408;28;19926;-81
2022/02/19 13:23:58;;;;;;;;;;;6.70;92.50;;;;;;4926295;29;19934;-82
2022/02/19 13:26:24;;;;;;;;;;;6.70;92.80;;;;;;4923519;28;19923;-81
2022/02/19 13:28:51;;;;;;;;;;;6.70;91.80;;;;;;4893079;28;19930;-82
2022/02/19 13:31:17;;;;;;;;;;;6.80;90.30;;;;;;4954990;28;19924;-83
2022/02/19 13:33:43;;;;;;;;;;;6.90;87.90;;;;;;4920246;28;19915;-82
2022/02/19 13:36:08;;;;;;;;;;;6.90;88.30;;;;;;4921235;28;19923;-82
2022/02/19 13:38:34;;;;;;;;;;;6.80;88.60;;;;;;4935289;28;19997;-82
2022/02/19 13:41:00;;;;;;;;;;;6.80;87.50;;;;;;4928016;28;19919;-84
2022/02/19 13:43:26;;;;;;;;;;;6.70;90.10;;;;;;4944933;29;19922;-85
2022/02/19 13:45:52;;;;;;;;;;;6.70;90.20;;;;;;4928427;28;19926;-81
2022/02/19 13:48:23;;;;;;;;;;;6.60;88.70;;;;;;4927102;28;20539;-84
2022/02/19 13:50:56;;;;;;;;;;;6.50;88.90;;;;;;4926160;28;19922;-81
2022/02/19 13:53:30;;;;;;;;;;;6.50;88.90;;;;;;4993875;28;20078;-82
2022/02/19 13:55:57;;;;;;;;;;;6.50;88.40;;;;;;4918008;28;19923;-82
2022/02/19 13:58:30;;;;;;;;;;;6.50;88.60;;;;;;4910266;28;19930;-82
2022/02/19 14:01:07;;;;;;;;;;;6.50;89.80;;;;;;4922630;28;20438;-84
2022/02/19 14:03:53;;;;;;;;;;;6.50;88.70;;;;;;4941847;28;19915;-83
2022/02/19 14:06:34;;;;;;;;;;;6.50;85.00;;;;;;4920591;29;19919;-83
2022/02/19 14:09:09;;;;;;;;;;;6.40;90.60;;;;;;4910408;28;20001;-84
2022/02/19 14:11:41;;;;;;;;;;;6.30;89.90;;;;;;4944564;29;19918;-83
2022/02/19 14:14:06;;;;;;;;;;;6.20;90.50;;;;;;4925292;28;20077;-81
2022/02/19 14:16:32;;;;;;;;;;;6.10;89.50;;;;;;4977663;28;19969;-81
2022/02/19 14:19:02;;;;;;;;;;;6.00;91.10;;;;;;4910408;28;20013;-83
2022/02/19 14:21:27;;;;;;;;;;;6.00;93.80;;;;;;4929283;28;20376;-82
2022/02/19 14:24:07;;;;;;;;;;;5.90;91.80;;;;;;4894554;29;20014;-81
2022/02/19 14:26:32;;;;;;;;;;;5.80;91.10;;;;;;4909550;28;19930;-83
2022/02/19 14:28:58;;;;;;;;;;;5.80;91.50;;;;;;4926472;28;19915;-82
2022/02/19 14:31:23;;;;;;;;;;;5.80;92.00;;;;;;4894617;28;19981;-83
2022/02/19 14:33:49;;;;;;;;;;;5.80;92.30;;;;;;4922761;28;19919;-80
2022/02/19 14:36:19;;;;;;;;;;;5.80;92.50;;;;;;4927730;29;20316;-85
2022/02/19 14:38:45;;;;;;;;;;;5.90;91.20;;;;;;4921762;28;19919;-84
2022/02/19 14:41:11;;;;;;;;;;;5.90;90.30;;;;;;4941832;28;20357;-80
2022/02/19 14:43:36;;;;;;;;;;;5.90;91.80;;;;;;4908508;28;19923;-82
2022/02/19 14:46:03;;;;;;;;;;;5.90;91.50;;;;;;4907324;28;19923;-83
2022/02/19 14:48:29;;;;;;;;;;;5.80;90.40;;;;;;4931723;28;20584;-82
2022/02/19 14:50:56;;;;;;;;;;;5.90;90.80;;;;;;4962201;28;20385;-82
2022/02/19 14:53:23;;;;;;;;;;;5.90;91.00;;;;;;4943253;28;20398;-82
2022/02/19 14:55:50;;;;;;;;;;;5.90;91.00;;;;;;4949291;28;20017;-83
2022/02/19 14:58:16;;;;;;;;;;;5.90;91.50;;;;;;4923335;28;19992;-84